Time;durP1;ratioP1;P1;durP2;ratioP2;P2;SDS_P1;SDS_P2;PMS_P1;PMS_P2;Temp;Humidity;BMP_temperature;BMP_pressure;BME280_temperature;BME280_humidity;BME280_pressure;Samples;Min_cycle;Max_cycle;Signal;HPM_P1;HPM_P2
2024/01/31 00:00:25;;;;;;;11.80;8.20;;;10.80;99.90;;;;;;5026160;28;20195;-59
2024/01/31 00:02:51;;;;;;;11.23;8.30;;;10.80;99.90;;;;;;5025653;28;20214;-59
2024/01/31 00:05:18;;;;;;;11.33;8.50;;;10.80;99.90;;;;;;5022540;28;20280;-59
2024/01/31 00:07:48;;;;;;;12.37;8.63;;;10.80;99.90;;;;;;5022352;28;20218;-60
2024/01/31 00:10:16;;;;;;;13.43;9.43;;;10.70;99.90;;;;;;5025586;28;20222;-59
2024/01/31 00:12:42;;;;;;;12.47;9.00;;;10.80;99.90;;;;;;5025725;28;20202;-59
2024/01/31 00:15:09;;;;;;;11.77;8.90;;;10.80;99.90;;;;;;5023046;28;20226;-59
2024/01/31 00:17:36;;;;;;;12.40;8.97;;;10.80;99.90;;;;;;5022524;28;20206;-58
2024/01/31 00:20:03;;;;;;;12.97;8.93;;;10.80;99.90;;;;;;5023776;28;20254;-58
2024/01/31 00:22:29;;;;;;;10.77;8.17;;;10.90;99.90;;;;;;5025605;28;20199;-58
2024/01/31 00:24:57;;;;;;;11.23;8.23;;;10.80;99.90;;;;;;5024560;28;20233;-58
2024/01/31 00:27:24;;;;;;;14.53;8.47;;;10.80;99.90;;;;;;5021717;28;20294;-58
2024/01/31 00:29:51;;;;;;;10.83;8.30;;;10.80;99.90;;;;;;5021867;28;20288;-59
2024/01/31 00:32:17;;;;;;;11.13;8.27;;;10.80;99.90;;;;;;5025432;28;20632;-59
2024/01/31 00:34:44;;;;;;;15.10;8.90;;;10.80;99.90;;;;;;5025244;28;20226;-58
2024/01/31 00:37:10;;;;;;;13.83;7.90;;;10.80;99.90;;;;;;5022417;28;20265;-59
2024/01/31 00:39:38;;;;;;;10.10;8.00;;;10.80;99.90;;;;;;5021836;28;20215;-59
2024/01/31 00:42:07;;;;;;;12.47;8.47;;;10.90;99.90;;;;;;5023358;28;20225;-58
2024/01/31 00:44:33;;;;;;;10.50;7.87;;;10.90;99.90;;;;;;5025182;28;20226;-58
2024/01/31 00:47:00;;;;;;;13.03;7.77;;;10.90;99.90;;;;;;5023534;28;20214;-59
2024/01/31 00:49:27;;;;;;;11.30;7.90;;;11.00;99.90;;;;;;5021730;28;20207;-58
2024/01/31 00:51:53;;;;;;;9.73;7.47;;;11.00;99.90;;;;;;5021467;28;20233;-59
2024/01/31 00:54:20;;;;;;;10.83;8.07;;;11.10;99.90;;;;;;5024846;28;20222;-58
2024/01/31 00:56:47;;;;;;;13.93;7.60;;;11.10;99.90;;;;;;5023758;28;20259;-59
2024/01/31 00:59:15;;;;;;;14.27;8.27;;;11.20;99.90;;;;;;5021912;28;20206;-59
2024/01/31 01:01:42;;;;;;;11.00;7.53;;;11.20;99.90;;;;;;5021616;28;20207;-58
2024/01/31 01:04:08;;;;;;;14.03;7.93;;;11.20;99.90;;;;;;5023283;28;20700;-58
2024/01/31 01:06:35;;;;;;;10.10;7.80;;;11.30;99.90;;;;;;5024362;28;20283;-58
2024/01/31 01:09:02;;;;;;;12.03;7.60;;;11.20;99.90;;;;;;5023240;28;20690;-58
2024/01/31 01:11:30;;;;;;;9.67;7.23;;;11.10;99.90;;;;;;5021177;28;20219;-58
2024/01/31 01:13:56;;;;;;;10.40;7.33;;;11.10;99.90;;;;;;5021840;28;20231;-58
2024/01/31 01:16:24;;;;;;;11.17;7.60;;;11.20;99.90;;;;;;5024693;28;20202;-58
2024/01/31 01:18:51;;;;;;;9.23;7.10;;;11.20;99.90;;;;;;5024515;28;20206;-57
2024/01/31 01:21:18;;;;;;;8.77;6.70;;;11.20;99.90;;;;;;5012778;28;20214;-58
2024/01/31 01:23:44;;;;;;;9.77;6.67;;;11.10;99.90;;;;;;5021010;28;20226;-59
2024/01/31 01:26:12;;;;;;;10.23;6.97;;;11.10;99.90;;;;;;5023240;28;20218;-58
2024/01/31 01:28:39;;;;;;;13.63;7.60;;;11.10;99.90;;;;;;5024275;28;20225;-58
2024/01/31 01:31:05;;;;;;;11.90;7.37;;;11.20;99.90;;;;;;5022542;28;20305;-58
2024/01/31 01:33:33;;;;;;;9.87;6.80;;;11.20;99.90;;;;;;5020996;28;20242;-58
2024/01/31 01:36:00;;;;;;;11.53;7.00;;;11.20;99.90;;;;;;5021537;28;20211;-59
2024/01/31 01:38:27;;;;;;;10.80;7.73;;;11.20;99.90;;;;;;5024007;28;20591;-59
2024/01/31 01:40:53;;;;;;;9.57;6.83;;;11.20;99.90;;;;;;5023884;28;20554;-58
2024/01/31 01:43:21;;;;;;;10.00;6.80;;;11.20;99.90;;;;;;5020622;28;20203;-59
2024/01/31 01:45:48;;;;;;;12.50;6.43;;;11.20;99.90;;;;;;5020819;28;20207;-58
2024/01/31 01:48:16;;;;;;;10.00;7.00;;;11.20;99.90;;;;;;5020475;28;20691;-60
2024/01/31 01:50:46;;;;;;;12.30;6.80;;;11.30;99.90;;;;;;5020562;28;20636;-59
2024/01/31 01:53:13;;;;;;;12.00;6.83;;;11.30;99.90;;;;;;5023128;28;20210;-59
2024/01/31 01:55:41;;;;;;;7.97;6.30;;;11.30;99.90;;;;;;5023885;28;20675;-59
2024/01/31 01:58:08;;;;;;;9.50;7.10;;;11.40;99.90;;;;;;5021537;28;20206;-58
2024/01/31 02:00:36;;;;;;;9.93;7.17;;;11.40;99.90;;;;;;5020531;28;20728;-58
2024/01/31 02:03:04;;;;;;;8.67;6.87;;;11.50;99.90;;;;;;5021592;28;20203;-58
2024/01/31 02:05:31;;;;;;;10.93;6.93;;;11.50;99.90;;;;;;5023783;28;20264;-58
2024/01/31 02:08:00;;;;;;;9.20;7.30;;;11.50;99.90;;;;;;5023221;28;20202;-58
2024/01/31 02:10:27;;;;;;;11.10;7.40;;;11.50;99.90;;;;;;5020770;28;20273;-59
2024/01/31 02:12:53;;;;;;;9.87;7.20;;;11.50;99.90;;;;;;5020857;28;20207;-59
2024/01/31 02:15:20;;;;;;;11.20;7.67;;;11.50;99.90;;;;;;5012889;28;20632;-59
2024/01/31 02:17:47;;;;;;;9.67;6.83;;;11.50;99.90;;;;;;5020180;28;20616;-57
2024/01/31 02:20:15;;;;;;;10.07;7.27;;;11.50;99.90;;;;;;5022792;28;20215;-58
2024/01/31 02:22:46;;;;;;;9.27;6.80;;;11.50;99.90;;;;;;5023470;28;20213;-57
2024/01/31 02:25:13;;;;;;;9.53;7.10;;;11.50;99.90;;;;;;5021214;28;20230;-59
2024/01/31 02:27:40;;;;;;;9.97;7.30;;;11.30;99.90;;;;;;5019772;28;20218;-59
2024/01/31 02:30:08;;;;;;;11.80;7.37;;;11.30;99.90;;;;;;5021767;28;20244;-59
2024/01/31 02:32:35;;;;;;;9.27;7.47;;;11.30;99.90;;;;;;5023279;28;20218;-58
2024/01/31 02:35:01;;;;;;;11.07;7.23;;;11.30;99.90;;;;;;5022422;28;20284;-59
2024/01/31 02:37:28;;;;;;;10.07;7.63;;;11.20;99.90;;;;;;5020162;28;20203;-59
2024/01/31 02:39:56;;;;;;;11.27;7.10;;;11.20;99.90;;;;;;5020194;28;20233;-59
2024/01/31 02:42:23;;;;;;;8.60;6.93;;;11.10;99.90;;;;;;5012363;28;20199;-59
2024/01/31 02:44:49;;;;;;;7.73;5.97;;;11.10;99.90;;;;;;5019912;28;20238;-60
2024/01/31 02:47:16;;;;;;;12.77;7.20;;;11.10;99.90;;;;;;5022342;28;20717;-59
2024/01/31 02:49:43;;;;;;;12.87;6.33;;;11.10;99.90;;;;;;5023481;28;20718;-59
2024/01/31 02:52:09;;;;;;;9.53;6.23;;;11.00;99.90;;;;;;5021358;28;20218;-59
2024/01/31 02:54:36;;;;;;;7.97;5.80;;;11.00;99.90;;;;;;5019800;28;20289;-59
2024/01/31 02:57:04;;;;;;;7.97;6.50;;;11.00;99.90;;;;;;5020525;28;20262;-58
2024/01/31 02:59:31;;;;;;;9.57;5.73;;;11.00;99.90;;;;;;5023218;28;20203;-60
2024/01/31 03:01:58;;;;;;;8.80;6.07;;;11.00;99.90;;;;;;5022727;28;20206;-59
2024/01/31 03:04:25;;;;;;;11.47;6.47;;;11.00;99.90;;;;;;5019641;28;20227;-57
2024/01/31 03:06:51;;;;;;;10.70;6.23;;;11.00;99.90;;;;;;5019625;28;20233;-58
2024/01/31 03:09:18;;;;;;;8.53;6.40;;;10.90;99.90;;;;;;5022865;28;20206;-59
2024/01/31 03:11:45;;;;;;;7.83;6.20;;;10.90;99.90;;;;;;5023572;28;20222;-59
2024/01/31 03:14:13;;;;;;;9.90;6.30;;;10.90;99.90;;;;;;5020889;28;20222;-59
2024/01/31 03:16:39;;;;;;;7.73;6.17;;;10.90;99.90;;;;;;5019415;28;20211;-59
2024/01/31 03:19:06;;;;;;;8.33;6.30;;;10.90;99.90;;;;;;5021106;28;20207;-59
2024/01/31 03:21:33;;;;;;;11.53;6.60;;;10.90;99.90;;;;;;5026409;28;20676;-59
2024/01/31 03:24:00;;;;;;;8.93;6.47;;;10.90;99.90;;;;;;5026044;28;20257;-61
2024/01/31 03:26:27;;;;;;;8.83;6.20;;;10.90;99.90;;;;;;5023258;28;20237;-59
2024/01/31 03:28:54;;;;;;;9.20;6.57;;;10.90;99.90;;;;;;5023144;28;20207;-58
2024/01/31 03:31:22;;;;;;;10.27;6.50;;;10.90;99.90;;;;;;5026602;28;20309;-59
2024/01/31 03:33:48;;;;;;;9.60;6.83;;;10.90;99.90;;;;;;5026509;28;20234;-59
2024/01/31 03:36:15;;;;;;;9.30;6.53;;;10.80;99.90;;;;;;5024274;28;20210;-59
2024/01/31 03:38:42;;;;;;;8.70;6.20;;;10.80;99.90;;;;;;5022872;28;20226;-59
2024/01/31 03:41:09;;;;;;;9.37;6.43;;;10.70;99.90;;;;;;5024636;28;20202;-59
2024/01/31 03:43:35;;;;;;;10.67;6.67;;;10.70;99.90;;;;;;5026251;28;20235;-60
2024/01/31 03:46:05;;;;;;;10.13;6.77;;;10.60;99.90;;;;;;5025486;28;20676;-59
2024/01/31 03:48:34;;;;;;;11.60;6.90;;;10.50;99.90;;;;;;5022677;28;20207;-59
2024/01/31 03:51:00;;;;;;;10.57;7.23;;;10.50;99.90;;;;;;5023249;28;20210;-58
2024/01/31 03:53:27;;;;;;;15.23;7.60;;;10.50;99.90;;;;;;5026027;28;20222;-59
2024/01/31 03:55:54;;;;;;;13.37;7.60;;;10.60;99.90;;;;;;5025926;28;20742;-59
2024/01/31 03:58:21;;;;;;;11.63;7.40;;;10.60;99.90;;;;;;5022452;28;20673;-59
2024/01/31 04:00:48;;;;;;;9.10;6.97;;;10.60;99.90;;;;;;5022767;28;20214;-59
2024/01/31 04:03:20;;;;;;;14.47;7.93;;;10.70;99.90;;;;;;5024857;28;20211;-59
2024/01/31 04:05:48;;;;;;;12.37;7.77;;;10.70;99.90;;;;;;5056656;22;20738;-59
2024/01/31 04:08:15;;;;;;;11.13;7.20;;;10.70;99.90;;;;;;5033670;28;20256;-60
2024/01/31 04:10:42;;;;;;;12.30;7.20;;;10.80;99.90;;;;;;5034061;28;20210;-59
2024/01/31 04:13:08;;;;;;;11.73;7.13;;;10.90;99.90;;;;;;5033856;28;20272;-59
2024/01/31 04:15:36;;;;;;;9.87;7.00;;;10.90;99.90;;;;;;5025811;28;20226;-60
2024/01/31 04:18:03;;;;;;;9.27;6.40;;;10.90;99.90;;;;;;5024789;28;20237;-59
2024/01/31 04:20:29;;;;;;;11.83;7.27;;;10.90;99.90;;;;;;5022261;28;20203;-58
2024/01/31 04:22:57;;;;;;;13.27;7.10;;;11.00;99.90;;;;;;5022046;28;20222;-59
2024/01/31 04:25:24;;;;;;;10.37;6.93;;;11.10;99.90;;;;;;5025582;28;20595;-59
2024/01/31 04:27:51;;;;;;;9.40;7.00;;;11.10;99.90;;;;;;5025172;28;20714;-59
2024/01/31 04:30:19;;;;;;;13.17;7.40;;;11.10;99.90;;;;;;5022791;28;20256;-59
2024/01/31 04:32:45;;;;;;;10.80;7.77;;;11.20;99.90;;;;;;5020859;28;20219;-59
2024/01/31 04:35:12;;;;;;;10.30;7.73;;;11.20;99.90;;;;;;5023719;28;20231;-59
2024/01/31 04:37:39;;;;;;;9.57;7.17;;;11.10;99.90;;;;;;5024842;28;20264;-59
2024/01/31 04:40:09;;;;;;;9.53;7.00;;;11.10;99.90;;;;;;5024235;28;20239;-59
2024/01/31 04:42:35;;;;;;;11.10;7.20;;;11.20;99.90;;;;;;5021752;28;20285;-59
2024/01/31 04:45:02;;;;;;;11.37;8.20;;;11.10;99.90;;;;;;5021878;28;20586;-59
2024/01/31 04:47:29;;;;;;;11.63;7.73;;;11.00;99.90;;;;;;5024769;28;20203;-60
2024/01/31 04:49:57;;;;;;;9.93;7.37;;;11.00;99.90;;;;;;5024976;28;20252;-59
2024/01/31 04:52:24;;;;;;;9.57;6.90;;;11.00;99.90;;;;;;5021472;28;20321;-59
2024/01/31 04:54:51;;;;;;;8.87;6.93;;;11.10;99.90;;;;;;5021631;28;20231;-59
2024/01/31 04:57:19;;;;;;;11.30;6.83;;;11.10;99.90;;;;;;5023921;28;20296;-59
2024/01/31 04:59:46;;;;;;;12.10;9.53;;;11.20;99.90;;;;;;5026986;28;20211;-59
2024/01/31 05:02:12;;;;;;;11.43;8.03;;;11.20;99.90;;;;;;5023224;28;20203;-59
2024/01/31 05:04:40;;;;;;;11.47;7.47;;;11.30;99.90;;;;;;5024423;28;20261;-60
2024/01/31 05:07:07;;;;;;;10.93;7.53;;;11.30;99.90;;;;;;5023457;28;20206;-59
2024/01/31 05:09:33;;;;;;;10.50;7.53;;;11.20;99.90;;;;;;5021697;28;20214;-59
2024/01/31 05:12:00;;;;;;;9.77;7.50;;;11.30;99.90;;;;;;5030370;28;20229;-60
2024/01/31 05:14:28;;;;;;;11.13;7.47;;;11.20;99.90;;;;;;5022200;28;20229;-59
2024/01/31 05:16:55;;;;;;;9.73;7.77;;;11.20;99.90;;;;;;5021584;28;20220;-59
2024/01/31 05:19:22;;;;;;;11.00;7.50;;;11.20;99.90;;;;;;5024049;28;20229;-60
2024/01/31 05:21:49;;;;;;;13.47;8.20;;;11.20;99.90;;;;;;5024560;28;20214;-60
2024/01/31 05:24:16;;;;;;;12.07;7.70;;;11.20;99.90;;;;;;5022093;28;20226;-60
2024/01/31 05:26:44;;;;;;;13.20;7.40;;;11.20;99.90;;;;;;5020777;28;20210;-60
2024/01/31 05:29:11;;;;;;;11.63;7.43;;;11.20;99.90;;;;;;5022345;28;20338;-60
2024/01/31 05:31:39;;;;;;;12.80;8.00;;;11.20;99.90;;;;;;5024057;28;20314;-60
2024/01/31 05:34:06;;;;;;;10.50;8.00;;;11.20;99.90;;;;;;5023234;28;20226;-61
2024/01/31 05:36:33;;;;;;;11.30;7.70;;;11.20;99.90;;;;;;5020656;28;20211;-60
2024/01/31 05:39:00;;;;;;;9.80;7.83;;;11.20;99.90;;;;;;5020861;28;20235;-60
2024/01/31 05:41:26;;;;;;;10.47;7.67;;;11.20;99.90;;;;;;5012761;28;20206;-60
2024/01/31 05:43:53;;;;;;;9.90;7.53;;;11.30;99.90;;;;;;5020162;28;20211;-60
2024/01/31 05:46:20;;;;;;;9.97;8.33;;;11.30;99.90;;;;;;5023055;28;20207;-60
2024/01/31 05:48:48;;;;;;;12.77;7.97;;;11.30;99.90;;;;;;5023772;28;20540;-60
2024/01/31 05:51:15;;;;;;;11.73;8.17;;;11.30;99.90;;;;;;5021892;28;20209;-60
2024/01/31 05:53:42;;;;;;;13.20;8.83;;;11.30;99.90;;;;;;5020390;28;20222;-59
2024/01/31 05:56:08;;;;;;;10.43;7.80;;;11.30;99.90;;;;;;5021433;28;20638;-60
2024/01/31 05:58:35;;;;;;;11.97;9.43;;;11.10;99.90;;;;;;5023560;28;20605;-60
2024/01/31 06:01:01;;;;;;;8.97;7.27;;;10.90;99.90;;;;;;5023314;28;20671;-60
2024/01/31 06:03:28;;;;;;;11.97;8.50;;;10.70;99.90;;;;;;5020387;28;20668;-61
2024/01/31 06:05:58;;;;;;;12.00;9.10;;;10.60;99.90;;;;;;5020135;28;20595;-60
2024/01/31 06:08:25;;;;;;;11.47;8.53;;;10.70;99.90;;;;;;5023206;28;20245;-59
2024/01/31 06:10:54;;;;;;;14.13;8.97;;;10.70;99.90;;;;;;5023772;28;20627;-60
2024/01/31 06:13:21;;;;;;;15.37;8.67;;;10.80;99.90;;;;;;5020510;28;20218;-60
2024/01/31 06:15:47;;;;;;;16.03;8.10;;;10.90;99.90;;;;;;5020647;28;20234;-60
2024/01/31 06:18:15;;;;;;;11.60;8.80;;;10.80;99.90;;;;;;5021636;28;20207;-59
2024/01/31 06:20:43;;;;;;;12.37;7.57;;;10.80;99.90;;;;;;5023857;28;20244;-60
2024/01/31 06:23:12;;;;;;;12.53;8.50;;;10.80;99.90;;;;;;5022320;28;20213;-59
2024/01/31 06:25:38;;;;;;;11.20;8.47;;;10.70;99.90;;;;;;5020057;28;20241;-60
2024/01/31 06:28:06;;;;;;;11.83;7.63;;;10.70;99.90;;;;;;5020124;28;20631;-60
2024/01/31 06:30:40;;;;;;;9.53;7.77;;;10.80;99.90;;;;;;5023604;28;20602;-60
2024/01/31 06:33:07;;;;;;;11.60;8.57;;;10.90;99.90;;;;;;5022220;28;20719;-60
2024/01/31 06:35:34;;;;;;;12.63;8.97;;;10.80;99.90;;;;;;5019892;28;20222;-60
2024/01/31 06:38:01;;;;;;;11.17;7.80;;;10.90;99.90;;;;;;5019794;28;20298;-60
2024/01/31 06:40:30;;;;;;;11.23;8.57;;;10.90;99.90;;;;;;5011871;28;20699;-60
2024/01/31 06:42:57;;;;;;;12.73;9.83;;;11.00;99.90;;;;;;5019746;28;20235;-59
2024/01/31 06:45:24;;;;;;;12.47;9.20;;;11.00;99.90;;;;;;5022722;28;20222;-60
2024/01/31 06:47:51;;;;;;;11.57;8.80;;;11.00;99.90;;;;;;5023091;28;20207;-60
2024/01/31 06:50:18;;;;;;;14.03;9.57;;;11.10;99.90;;;;;;5020597;28;20640;-60
2024/01/31 06:52:45;;;;;;;13.10;8.93;;;11.10;99.90;;;;;;5019607;28;20305;-60
2024/01/31 06:55:11;;;;;;;12.03;8.30;;;11.20;99.90;;;;;;5022182;28;20231;-60
2024/01/31 06:57:40;;;;;;;11.93;7.73;;;11.20;99.90;;;;;;5026960;28;20210;-60
2024/01/31 07:00:08;;;;;;;11.23;7.97;;;11.20;99.90;;;;;;5026115;28;20213;-59
2024/01/31 07:02:35;;;;;;;9.43;7.43;;;11.20;99.90;;;;;;5023568;28;20199;-59
2024/01/31 07:05:02;;;;;;;10.60;7.30;;;11.20;99.90;;;;;;5023318;28;20285;-60
2024/01/31 07:07:28;;;;;;;11.83;8.60;;;11.20;99.90;;;;;;5015182;28;20199;-60
2024/01/31 07:09:55;;;;;;;11.57;7.97;;;11.30;99.90;;;;;;5023377;28;20211;-60
2024/01/31 07:12:21;;;;;;;13.47;8.57;;;11.30;99.90;;;;;;5025662;28;20227;-60
2024/01/31 07:14:49;;;;;;;14.00;7.90;;;11.30;99.90;;;;;;5026648;28;20226;-59
2024/01/31 07:17:16;;;;;;;10.23;8.00;;;11.30;99.90;;;;;;5024509;28;20214;-60
2024/01/31 07:19:43;;;;;;;11.60;8.43;;;11.40;99.90;;;;;;5023025;28;20214;-60
2024/01/31 07:22:10;;;;;;;11.10;7.57;;;11.40;99.90;;;;;;5023685;28;20234;-60
2024/01/31 07:24:37;;;;;;;11.40;7.50;;;11.50;99.90;;;;;;5026295;28;20226;-60
2024/01/31 07:27:04;;;;;;;12.73;7.27;;;11.50;99.90;;;;;;5026177;28;20210;-60
2024/01/31 07:29:30;;;;;;;9.93;7.10;;;11.50;99.90;;;;;;5023183;28;20199;-60
2024/01/31 07:31:59;;;;;;;11.43;8.60;;;11.60;99.90;;;;;;5022791;28;20203;-60
2024/01/31 07:34:25;;;;;;;11.03;7.97;;;11.60;99.90;;;;;;5025466;28;20585;-60
2024/01/31 07:36:52;;;;;;;13.53;7.77;;;11.60;99.90;;;;;;5025839;28;20202;-61
2024/01/31 07:39:19;;;;;;;10.53;7.97;;;11.70;99.90;;;;;;5023977;28;20704;-60
2024/01/31 07:41:46;;;;;;;11.43;8.80;;;11.80;99.90;;;;;;5022489;28;20696;-59
2024/01/31 07:44:12;;;;;;;11.53;8.37;;;11.80;99.90;;;;;;5023578;28;20297;-60
2024/01/31 07:46:39;;;;;;;13.73;9.83;;;11.80;99.90;;;;;;5025994;28;20210;-60
2024/01/31 07:49:08;;;;;;;13.97;11.10;;;11.80;99.90;;;;;;5025468;28;20737;-60
2024/01/31 07:51:42;;;;;;;13.37;9.07;;;11.90;99.90;;;;;;5022390;28;20210;-60
2024/01/31 07:54:09;;;;;;;13.47;8.50;;;11.90;99.90;;;;;;5022406;28;20610;-60
2024/01/31 07:56:36;;;;;;;11.37;8.77;;;11.90;99.90;;;;;;5025794;28;20228;-60
2024/01/31 07:59:02;;;;;;;13.13;9.50;;;12.00;99.90;;;;;;5025888;28;20280;-60
2024/01/31 08:01:29;;;;;;;14.40;10.60;;;12.00;99.90;;;;;;5022260;28;20203;-60
2024/01/31 08:03:56;;;;;;;10.73;9.57;;;12.10;99.90;;;;;;5022014;28;20219;-60
2024/01/31 08:06:24;;;;;;;14.43;9.50;;;12.10;99.90;;;;;;5024830;28;20211;-60
2024/01/31 08:08:51;;;;;;;10.80;8.50;;;12.10;99.90;;;;;;5025609;28;20210;-60
2024/01/31 08:11:18;;;;;;;13.43;9.00;;;12.00;99.90;;;;;;5023665;28;20214;-60
2024/01/31 08:13:45;;;;;;;11.30;8.63;;;11.90;99.90;;;;;;5022009;28;20309;-59
2024/01/31 08:16:12;;;;;;;11.97;8.73;;;12.00;99.90;;;;;;5022733;28;20215;-60
2024/01/31 08:18:38;;;;;;;10.93;8.93;;;12.00;99.90;;;;;;5025109;28;20617;-60
2024/01/31 08:21:06;;;;;;;10.77;8.90;;;12.10;99.90;;;;;;5025469;28;20263;-61
2024/01/31 08:23:34;;;;;;;12.03;10.23;;;12.10;99.90;;;;;;5022137;28;20229;-61
2024/01/31 08:26:02;;;;;;;16.17;13.50;;;12.20;99.90;;;;;;5021872;28;20210;-61
2024/01/31 08:28:29;;;;;;;20.03;15.13;;;12.30;99.90;;;;;;5024668;28;20586;-60
2024/01/31 08:30:55;;;;;;;11.70;9.43;;;12.30;99.90;;;;;;5025255;28;20297;-61
2024/01/31 08:33:22;;;;;;;14.50;8.33;;;12.40;99.90;;;;;;5022998;28;20226;-60
2024/01/31 08:35:48;;;;;;;13.33;8.37;;;12.30;99.90;;;;;;5021726;28;20282;-60
2024/01/31 08:38:15;;;;;;;13.50;8.47;;;12.10;99.90;;;;;;5022796;28;20280;-60
2024/01/31 08:40:43;;;;;;;14.17;8.47;;;11.80;99.90;;;;;;5024955;28;20613;-59
2024/01/31 08:43:10;;;;;;;11.87;8.53;;;11.70;99.90;;;;;;5024877;28;20213;-59
2024/01/31 08:45:36;;;;;;;9.33;8.17;;;12.00;99.90;;;;;;5021960;28;20226;-60
2024/01/31 08:48:03;;;;;;;11.07;9.10;;;12.30;99.90;;;;;;5022665;28;20214;-59
2024/01/31 08:50:30;;;;;;;10.90;8.40;;;12.60;99.90;;;;;;5025240;28;20202;-60
2024/01/31 08:52:57;;;;;;;9.37;8.13;;;12.90;99.90;;;;;;5025140;28;20218;-59
2024/01/31 08:55:23;;;;;;;10.60;8.63;;;13.00;99.90;;;;;;5022246;28;20252;-59
2024/01/31 08:57:51;;;;;;;10.87;9.03;;;13.00;99.90;;;;;;5021132;28;20203;-59
2024/01/31 09:00:19;;;;;;;11.47;7.90;;;13.10;99.90;;;;;;5023128;28;20203;-59
2024/01/31 09:02:45;;;;;;;13.80;8.57;;;13.20;99.90;;;;;;5024816;28;20484;-59
2024/01/31 09:05:12;;;;;;;10.17;8.13;;;13.30;99.90;;;;;;5023536;28;20234;-59
2024/01/31 09:07:39;;;;;;;10.87;8.33;;;13.30;99.90;;;;;;5020894;28;20210;-59
2024/01/31 09:10:07;;;;;;;10.77;8.03;;;13.30;99.90;;;;;;5021036;28;20203;-59
2024/01/31 09:12:33;;;;;;;9.53;7.20;;;13.50;99.90;;;;;;5024132;28;20309;-59
2024/01/31 09:15:01;;;;;;;10.07;8.27;;;13.60;99.90;;;;;;5024331;28;20734;-59
2024/01/31 09:17:28;;;;;;;15.93;10.30;;;13.80;99.90;;;;;;5020773;28;20209;-59
2024/01/31 09:19:55;;;;;;;9.33;7.43;;;13.80;99.90;;;;;;5020976;28;20735;-59
2024/01/31 09:22:21;;;;;;;10.37;7.90;;;13.80;99.90;;;;;;5022725;28;20704;-61
2024/01/31 09:24:48;;;;;;;9.47;7.73;;;13.90;99.90;;;;;;5024309;28;20272;-59
2024/01/31 09:27:16;;;;;;;12.20;8.23;;;14.00;99.90;;;;;;5022759;28;20210;-59
2024/01/31 09:29:42;;;;;;;10.33;7.97;;;14.10;99.90;;;;;;5020986;28;20202;-59
2024/01/31 09:32:10;;;;;;;10.10;8.20;;;14.20;99.90;;;;;;5020929;28;20206;-59
2024/01/31 09:34:37;;;;;;;12.47;8.43;;;14.20;99.90;;;;;;5024183;28;20611;-58
2024/01/31 09:37:04;;;;;;;13.37;8.67;;;14.20;99.90;;;;;;5023843;28;20214;-58
2024/01/31 09:39:31;;;;;;;11.30;7.97;;;14.20;99.90;;;;;;5020610;28;20203;-59
2024/01/31 09:41:58;;;;;;;10.43;8.53;;;14.20;99.90;;;;;;5020768;28;20215;-58
2024/01/31 09:44:25;;;;;;;9.63;7.80;;;13.80;99.90;;;;;;5022843;28;20459;-58
2024/01/31 09:46:53;;;;;;;9.83;8.77;;;13.40;99.90;;;;;;5023632;28;20595;-58
2024/01/31 09:49:21;;;;;;;11.93;8.53;;;13.30;99.90;;;;;;5022004;28;20637;-59
2024/01/31 09:51:48;;;;;;;9.20;7.43;;;13.40;99.90;;;;;;5020558;28;20610;-59
2024/01/31 09:54:17;;;;;;;10.80;8.33;;;13.40;99.90;;;;;;5020904;28;20695;-59
2024/01/31 09:56:44;;;;;;;10.33;7.90;;;13.20;99.90;;;;;;5023466;28;20621;-58
2024/01/31 09:59:11;;;;;;;9.20;7.83;;;13.40;99.90;;;;;;5023505;28;20226;-59
2024/01/31 10:01:40;;;;;;;9.83;7.80;;;13.60;99.90;;;;;;5020360;28;20236;-59
2024/01/31 10:04:06;;;;;;;9.93;8.30;;;13.90;99.90;;;;;;5045564;22;20241;-59
2024/01/31 10:06:35;;;;;;;11.27;7.83;;;14.00;99.90;;;;;;5031539;28;20218;-58
2024/01/31 10:09:03;;;;;;;10.63;7.90;;;14.20;99.90;;;;;;5031894;28;20679;-61
2024/01/31 10:11:31;;;;;;;11.00;7.30;;;14.30;99.90;;;;;;5031566;28;20592;-59
2024/01/31 10:13:58;;;;;;;8.93;7.57;;;14.20;99.90;;;;;;5031753;28;20223;-59
2024/01/31 10:16:25;;;;;;;12.10;7.83;;;14.20;99.90;;;;;;5021333;28;20694;-59
2024/01/31 10:18:51;;;;;;;10.13;6.93;;;14.30;99.90;;;;;;5020084;28;20203;-58
2024/01/31 10:21:19;;;;;;;10.27;7.87;;;14.40;99.90;;;;;;5020990;28;20206;-59
2024/01/31 10:23:57;;;;;;;12.07;7.63;;;14.50;99.90;;;;;;5023536;28;20202;-58
2024/01/31 10:26:25;;;;;;;12.00;8.40;;;14.40;99.90;;;;;;5021410;28;20210;-58
2024/01/31 10:28:52;;;;;;;11.27;7.73;;;14.30;99.90;;;;;;5019561;28;20583;-58
2024/01/31 10:31:19;;;;;;;12.37;8.40;;;14.30;99.90;;;;;;5024704;28;20253;-58
2024/01/31 10:33:46;;;;;;;9.40;7.83;;;14.20;99.90;;;;;;5027056;28;20222;-60
2024/01/31 10:36:15;;;;;;;10.27;6.30;;;14.20;99.90;;;;;;5026936;28;20597;-59
2024/01/31 10:38:43;;;;;;;9.43;7.33;;;14.30;99.90;;;;;;5023964;28;20265;-58
2024/01/31 10:41:13;;;;;;;8.97;7.73;;;14.40;99.90;;;;;;5024073;28;20575;-58
2024/01/31 10:43:41;;;;;;;9.33;7.40;;;14.40;99.90;;;;;;5027572;28;20198;-59
2024/01/31 10:46:08;;;;;;;8.87;7.83;;;14.50;99.90;;;;;;5027021;28;20306;-58
2024/01/31 10:48:34;;;;;;;10.43;8.20;;;14.60;99.90;;;;;;5023370;28;20621;-59
2024/01/31 10:51:02;;;;;;;12.50;8.33;;;14.70;99.90;;;;;;5024044;28;20290;-59
2024/01/31 10:53:31;;;;;;;10.80;8.53;;;14.90;99.90;;;;;;5025923;28;20233;-59
2024/01/31 10:55:59;;;;;;;11.63;8.05;;;14.90;99.90;;;;;;5026786;28;20252;-59
2024/01/31 10:58:29;;;;;;;12.90;9.47;;;14.80;99.90;;;;;;5024829;28;20207;-58
2024/01/31 11:00:55;;;;;;;11.50;9.40;;;14.80;99.90;;;;;;5023507;28;20651;-59
2024/01/31 11:03:24;;;;;;;10.60;9.37;;;14.80;99.90;;;;;;5025299;28;20637;-60
2024/01/31 11:05:51;;;;;;;15.33;10.93;;;14.90;99.90;;;;;;5026733;28;20284;-59
2024/01/31 11:08:19;;;;;;;18.20;13.47;;;15.00;99.90;;;;;;5025453;28;20206;-58
2024/01/31 11:10:46;;;;;;;14.47;12.43;;;15.10;99.90;;;;;;5023369;28;20211;-59
2024/01/31 11:13:13;;;;;;;16.83;12.83;;;15.20;99.90;;;;;;5023227;28;20668;-59
2024/01/31 11:15:42;;;;;;;11.23;8.90;;;15.10;99.90;;;;;;5026513;28;20280;-58
2024/01/31 11:18:10;;;;;;;10.80;8.40;;;15.10;99.90;;;;;;5026189;28;20683;-58
2024/01/31 11:20:39;;;;;;;10.87;8.10;;;15.20;99.90;;;;;;5014993;28;20210;-59
2024/01/31 11:23:06;;;;;;;11.93;8.47;;;15.30;99.90;;;;;;5023153;28;20624;-59
2024/01/31 11:25:34;;;;;;;12.15;7.03;;;15.40;99.90;;;;;;5025888;28;20226;-59
2024/01/31 11:28:01;;;;;;;9.55;7.20;;;15.50;99.90;;;;;;5026141;28;20610;-59
2024/01/31 11:30:27;;;;;;;20.50;16.25;;;15.60;99.90;;;;;;5024205;28;20229;-59
2024/01/31 11:32:55;;;;;;;10.10;8.63;;;15.70;99.90;;;;;;5022941;28;20668;-59
2024/01/31 11:35:25;;;;;;;10.23;8.15;;;15.80;99.90;;;;;;5024151;28;20227;-59
2024/01/31 11:37:52;;;;;;;11.25;8.15;;;15.90;99.90;;;;;;5025936;28;20625;-59
2024/01/31 11:40:19;;;;;;;13.57;9.07;;;16.00;99.90;;;;;;5024675;28;20637;-59
2024/01/31 11:42:47;;;;;;;9.80;7.80;;;16.10;99.90;;;;;;5022699;28;20298;-59
2024/01/31 11:45:15;;;;;;;11.57;8.17;;;16.20;99.90;;;;;;5023170;28;20230;-59
2024/01/31 11:47:42;;;;;;;13.83;9.10;;;16.10;99.90;;;;;;5025995;28;20206;-58
2024/01/31 11:50:11;;;;;;;14.55;8.30;;;15.90;99.90;;;;;;5026032;28;20581;-59
2024/01/31 11:52:38;;;;;;;10.35;8.55;;;15.60;99.90;;;;;;5022503;28;20247;-59
2024/01/31 11:55:07;;;;;;;11.37;9.60;;;15.50;99.90;;;;;;5022274;28;20655;-60
2024/01/31 11:57:34;;;;;;;12.97;10.03;;;15.40;99.90;;;;;;5025217;28;20671;-59
2024/01/31 12:00:02;;;;;;;14.93;9.60;;;15.10;99.90;;;;;;5026151;28;20202;-59
2024/01/31 12:02:29;;;;;;;14.52;10.23;;;15.20;99.90;;;;;;5023331;28;20206;-59
2024/01/31 12:04:57;;;;;;;12.88;9.50;;;15.30;99.90;;;;;;5022261;28;20227;-58
2024/01/31 12:07:25;;;;;;;16.60;10.20;;;15.10;99.90;;;;;;5023646;28;20293;-59
2024/01/31 12:09:52;;;;;;;13.55;9.45;;;14.70;99.90;;;;;;5025586;28;20227;-60
2024/01/31 12:12:19;;;;;;;14.07;9.27;;;14.60;99.90;;;;;;5024798;28;20264;-59
2024/01/31 12:14:46;;;;;;;11.53;8.97;;;14.20;99.90;;;;;;5022070;28;20226;-58
2024/01/31 12:17:22;;;;;;;14.17;9.60;;;14.00;99.90;;;;;;5021725;28;20233;-58
2024/01/31 12:19:49;;;;;;;10.50;8.60;;;13.70;99.90;;;;;;5025346;28;20201;-60
2024/01/31 12:22:17;;;;;;;12.40;8.53;;;13.50;99.90;;;;;;5024439;28;20274;-59
2024/01/31 12:24:45;;;;;;;11.83;9.33;;;13.70;99.90;;;;;;5021947;28;20600;-59
2024/01/31 12:27:12;;;;;;;17.37;10.10;;;14.00;99.90;;;;;;5021876;28;20235;-59
2024/01/31 12:29:39;;;;;;;12.70;9.70;;;14.10;99.90;;;;;;5013810;28;20211;-59
2024/01/31 12:32:07;;;;;;;13.47;9.80;;;13.80;99.90;;;;;;5021754;28;20288;-59
2024/01/31 12:34:33;;;;;;;14.97;9.57;;;13.60;99.90;;;;;;5024407;28;20261;-58
2024/01/31 12:37:00;;;;;;;11.40;9.07;;;13.90;99.90;;;;;;5025156;28;20210;-59